sensor_id;sensor_type;location;lat;lon;timestamp;pressure;altitude;pressure_sealevel;temperature;humidity
46876;BME280;32866;50.160;14.768;2023-02-15T00:00:52;101090.31;;;1.61;100.00
46876;BME280;32866;50.160;14.768;2023-02-15T00:03:20;101083.25;;;1.69;100.00
46876;BME280;32866;50.160;14.768;2023-02-15T00:05:45;101060.25;;;1.38;100.00
46876;BME280;32866;50.160;14.768;2023-02-15T00:08:11;101090.38;;;1.73;100.00
46876;BME280;32866;50.160;14.768;2023-02-15T00:10:36;101057.22;;;1.39;100.00
46876;BME280;32866;50.160;14.768;2023-02-15T00:13:01;101073.66;;;1.59;100.00
46876;BME280;32866;50.160;14.768;2023-02-15T00:15:27;101038.66;;;1.50;100.00
46876;BME280;32866;50.160;14.768;2023-02-15T00:17:52;101078.75;;;1.60;100.00
46876;BME280;32866;50.160;14.768;2023-02-15T00:20:17;101064.22;;;1.53;100.00
46876;BME280;32866;50.160;14.768;2023-02-15T00:22:44;101075.38;;;1.63;100.00
46876;BME280;32866;50.160;14.768;2023-02-15T00:25:09;101075.16;;;1.69;100.00
46876;BME280;32866;50.160;14.768;2023-02-15T00:27:34;101060.59;;;1.48;100.00
46876;BME280;32866;50.160;14.768;2023-02-15T00:30:00;101044.59;;;1.31;100.00
46876;BME280;32866;50.160;14.768;2023-02-15T00:32:25;101052.84;;;1.59;100.00
46876;BME280;32866;50.160;14.768;2023-02-15T00:34:50;101072.09;;;1.82;100.00
46876;BME280;32866;50.160;14.768;2023-02-15T00:37:16;101016.81;;;1.43;100.00
46876;BME280;32866;50.160;14.768;2023-02-15T00:39:41;101060.25;;;1.50;100.00
46876;BME280;32866;50.160;14.768;2023-02-15T00:42:07;101066.69;;;1.58;100.00
46876;BME280;32866;50.160;14.768;2023-02-15T00:44:32;101060.25;;;1.62;100.00
46876;BME280;32866;50.160;14.768;2023-02-15T00:46:57;101056.13;;;1.53;100.00
46876;BME280;32866;50.160;14.768;2023-02-15T00:49:23;101066.56;;;1.54;100.00
46876;BME280;32866;50.160;14.768;2023-02-15T00:51:48;101065.78;;;1.54;100.00
46876;BME280;32866;50.160;14.768;2023-02-15T00:54:13;101063.41;;;1.52;100.00
46876;BME280;32866;50.160;14.768;2023-02-15T00:56:39;101065.22;;;1.60;100.00
46876;BME280;32866;50.160;14.768;2023-02-15T00:59:04;101074.03;;;1.70;100.00
46876;BME280;32866;50.160;14.768;2023-02-15T01:01:30;101024.53;;;1.32;100.00
46876;BME280;32866;50.160;14.768;2023-02-15T01:03:55;101060.25;;;1.62;100.00
46876;BME280;32866;50.160;14.768;2023-02-15T01:06:20;101063.78;;;1.63;100.00
46876;BME280;32866;50.160;14.768;2023-02-15T01:08:46;101056.66;;;1.58;100.00
46876;BME280;32866;50.160;14.768;2023-02-15T01:11:14;101057.22;;;1.52;100.00
46876;BME280;32866;50.160;14.768;2023-02-15T01:13:40;101047.09;;;1.48;100.00
46876;BME280;32866;50.160;14.768;2023-02-15T01:16:06;101005.84;;;1.15;100.00
46876;BME280;32866;50.160;14.768;2023-02-15T01:18:32;101044.16;;;1.41;100.00
46876;BME280;32866;50.160;14.768;2023-02-15T01:20:57;101038.97;;;1.48;100.00
46876;BME280;32866;50.160;14.768;2023-02-15T01:23:23;101023.88;;;1.35;100.00
46876;BME280;32866;50.160;14.768;2023-02-15T01:25:48;101036.94;;;1.45;100.00
46876;BME280;32866;50.160;14.768;2023-02-15T01:28:13;101032.13;;;1.51;100.00
46876;BME280;32866;50.160;14.768;2023-02-15T01:30:39;101034.22;;;1.33;100.00
46876;BME280;32866;50.160;14.768;2023-02-15T01:33:05;101032.09;;;1.39;100.00
46876;BME280;32866;50.160;14.768;2023-02-15T01:35:30;101030.66;;;1.41;100.00
46876;BME280;32866;50.160;14.768;2023-02-15T01:37:56;101032.25;;;1.55;100.00
46876;BME280;32866;50.160;14.768;2023-02-15T01:40:22;101023.47;;;1.58;100.00
46876;BME280;32866;50.160;14.768;2023-02-15T01:42:52;101030.69;;;1.66;100.00
46876;BME280;32866;50.160;14.768;2023-02-15T01:45:26;101016.47;;;1.57;100.00
46876;BME280;32866;50.160;14.768;2023-02-15T01:48:22;101017.47;;;1.52;100.00
46876;BME280;32866;50.160;14.768;2023-02-15T01:50:53;101019.72;;;1.50;100.00
46876;BME280;32866;50.160;14.768;2023-02-15T01:53:39;101025.25;;;1.54;100.00
46876;BME280;32866;50.160;14.768;2023-02-15T01:56:12;100983.34;;;1.23;100.00
46876;BME280;32866;50.160;14.768;2023-02-15T01:58:39;101005.63;;;1.32;100.00
46876;BME280;32866;50.160;14.768;2023-02-15T02:01:07;100989.63;;;1.15;100.00
46876;BME280;32866;50.160;14.768;2023-02-15T02:03:56;101003.06;;;1.48;100.00
46876;BME280;32866;50.160;14.768;2023-02-15T02:06:23;101004.50;;;1.33;100.00
46876;BME280;32866;50.160;14.768;2023-02-15T02:08:49;100997.22;;;1.58;100.00
46876;BME280;32866;50.160;14.768;2023-02-15T02:11:15;100972.44;;;1.32;100.00
46876;BME280;32866;50.160;14.768;2023-02-15T02:13:41;100997.56;;;1.44;100.00
46876;BME280;32866;50.160;14.768;2023-02-15T02:16:13;100979.09;;;1.46;100.00
46876;BME280;32866;50.160;14.768;2023-02-15T02:19:04;100995.63;;;1.45;100.00
46876;BME280;32866;50.160;14.768;2023-02-15T02:30:04;100939.53;;;0.92;100.00
46876;BME280;32866;50.160;14.768;2023-02-15T02:35:52;100970.16;;;1.09;100.00
46876;BME280;32866;50.160;14.768;2023-02-15T02:43:56;100973.44;;;1.27;100.00
46876;BME280;32866;50.160;14.768;2023-02-15T02:46:37;100973.88;;;1.29;100.00
46876;BME280;32866;50.160;14.768;2023-02-15T02:49:04;100962.28;;;1.16;100.00
46876;BME280;32866;50.160;14.768;2023-02-15T02:51:29;100969.16;;;1.26;100.00
46876;BME280;32866;50.160;14.768;2023-02-15T02:53:56;100980.75;;;1.26;100.00
46876;BME280;32866;50.160;14.768;2023-02-15T02:56:39;100970.94;;;1.09;100.00
46876;BME280;32866;50.160;14.768;2023-02-15T02:59:18;100946.59;;;0.97;100.00
46876;BME280;32866;50.160;14.768;2023-02-15T03:01:53;100974.41;;;1.10;100.00
46876;BME280;32866;50.160;14.768;2023-02-15T03:04:24;100931.88;;;0.95;100.00
46876;BME280;32866;50.160;14.768;2023-02-15T03:06:58;100970.06;;;1.42;100.00
46876;BME280;32866;50.160;14.768;2023-02-15T03:09:28;100971.09;;;1.38;100.00
46876;BME280;32866;50.160;14.768;2023-02-15T03:12:00;100954.06;;;1.13;100.00
46876;BME280;32866;50.160;14.768;2023-02-15T03:14:27;100961.84;;;1.14;100.00
46876;BME280;32866;50.160;14.768;2023-02-15T03:16:54;100937.81;;;0.88;100.00
46876;BME280;32866;50.160;14.768;2023-02-15T03:19:30;100943.31;;;0.79;100.00
46876;BME280;32866;50.160;14.768;2023-02-15T03:22:10;100963.72;;;1.01;100.00
46876;BME280;32866;50.160;14.768;2023-02-15T03:24:44;100961.84;;;1.14;100.00
46876;BME280;32866;50.160;14.768;2023-02-15T03:27:19;100969.50;;;1.37;100.00
46876;BME280;32866;50.160;14.768;2023-02-15T03:29:51;100960.84;;;1.31;100.00
46876;BME280;32866;50.160;14.768;2023-02-15T03:32:18;100964.19;;;1.16;100.00
46876;BME280;32866;50.160;14.768;2023-02-15T03:34:44;100964.88;;;1.25;100.00
46876;BME280;32866;50.160;14.768;2023-02-15T03:39:49;100966.69;;;1.21;100.00
46876;BME280;32866;50.160;14.768;2023-02-15T03:42:22;100962.84;;;1.22;100.00
46876;BME280;32866;50.160;14.768;2023-02-15T03:47:34;100953.97;;;1.09;100.00
46876;BME280;32866;50.160;14.768;2023-02-15T03:50:11;100948.06;;;0.95;100.00
46876;BME280;32866;50.160;14.768;2023-02-15T03:52:58;100944.81;;;0.89;100.00
46876;BME280;32866;50.160;14.768;2023-02-15T03:55:25;100927.03;;;0.88;100.00
46876;BME280;32866;50.160;14.768;2023-02-15T03:57:51;100945.28;;;1.03;100.00
46876;BME280;32866;50.160;14.768;2023-02-15T04:00:37;100940.31;;;1.05;100.00
46876;BME280;32866;50.160;14.768;2023-02-15T04:03:45;100928.84;;;1.08;100.00
46876;BME280;32866;50.160;14.768;2023-02-15T04:06:10;100933.81;;;1.06;100.00
46876;BME280;32866;50.160;14.768;2023-02-15T04:08:36;100930.66;;;1.17;100.00
46876;BME280;32866;50.160;14.768;2023-02-15T04:11:20;100919.59;;;0.97;100.00
46876;BME280;32866;50.160;14.768;2023-02-15T04:13:45;100939.97;;;1.07;100.00
46876;BME280;32866;50.160;14.768;2023-02-15T04:16:11;100916.13;;;0.97;100.00
46876;BME280;32866;50.160;14.768;2023-02-15T04:18:41;100938.97;;;1.11;100.00
46876;BME280;32866;50.160;14.768;2023-02-15T04:21:28;100945.88;;;1.21;100.00
46876;BME280;32866;50.160;14.768;2023-02-15T04:24:13;100940.47;;;1.21;100.00
46876;BME280;32866;50.160;14.768;2023-02-15T04:26:58;100941.25;;;1.22;100.00
46876;BME280;32866;50.160;14.768;2023-02-15T04:29:25;100942.34;;;1.08;100.00
46876;BME280;32866;50.160;14.768;2023-02-15T04:31:58;100929.19;;;0.95;100.00
46876;BME280;32866;50.160;14.768;2023-02-15T04:34:24;100937.94;;;0.91;100.00
46876;BME280;32866;50.160;14.768;2023-02-15T04:36:50;100937.38;;;0.98;100.00
46876;BME280;32866;50.160;14.768;2023-02-15T04:39:17;100934.13;;;0.92;100.00
46876;BME280;32866;50.160;14.768;2023-02-15T04:41:43;100927.97;;;1.17;100.00
46876;BME280;32866;50.160;14.768;2023-02-15T04:44:09;100941.13;;;1.18;100.00
46876;BME280;32866;50.160;14.768;2023-02-15T04:46:34;100935.19;;;1.13;100.00
46876;BME280;32866;50.160;14.768;2023-02-15T04:49:00;100928.75;;;1.05;100.00
46876;BME280;32866;50.160;14.768;2023-02-15T04:51:25;100933.78;;;0.94;100.00
46876;BME280;32866;50.160;14.768;2023-02-15T04:53:51;100925.22;;;0.80;100.00
46876;BME280;32866;50.160;14.768;2023-02-15T04:56:19;100932.75;;;0.86;100.00
46876;BME280;32866;50.160;14.768;2023-02-15T04:58:45;100927.47;;;0.78;100.00
46876;BME280;32866;50.160;14.768;2023-02-15T05:01:10;100926.66;;;0.77;100.00
46876;BME280;32866;50.160;14.768;2023-02-15T05:03:36;100925.66;;;0.82;100.00
46876;BME280;32866;50.160;14.768;2023-02-15T05:06:02;100891.63;;;0.44;100.00
46876;BME280;32866;50.160;14.768;2023-02-15T05:08:27;100926.66;;;0.77;100.00
46876;BME280;32866;50.160;14.768;2023-02-15T05:10:53;100898.25;;;0.46;100.00
46876;BME280;32866;50.160;14.768;2023-02-15T05:13:18;100913.38;;;0.72;100.00
46876;BME280;32866;50.160;14.768;2023-02-15T05:15:51;100929.06;;;0.91;100.00
46876;BME280;32866;50.160;14.768;2023-02-15T05:18:18;100927.03;;;0.88;100.00
46876;BME280;32866;50.160;14.768;2023-02-15T05:20:44;100917.09;;;0.80;100.00
46876;BME280;32866;50.160;14.768;2023-02-15T05:23:09;100895.44;;;0.55;100.00
46876;BME280;32866;50.160;14.768;2023-02-15T05:25:35;100929.63;;;0.97;100.00
46876;BME280;32866;50.160;14.768;2023-02-15T05:28:20;100920.63;;;0.92;100.00
46876;BME280;32866;50.160;14.768;2023-02-15T05:30:50;100927.69;;;0.97;100.00
46876;BME280;32866;50.160;14.768;2023-02-15T05:33:16;100923.88;;;0.98;100.00
46876;BME280;32866;50.160;14.768;2023-02-15T05:35:42;100889.06;;;0.60;100.00
46876;BME280;32866;50.160;14.768;2023-02-15T05:38:07;100912.59;;;0.71;100.00
46876;BME280;32866;50.160;14.768;2023-02-15T05:40:33;100900.59;;;0.48;100.00
46876;BME280;32866;50.160;14.768;2023-02-15T05:42:58;100895.63;;;0.38;100.00
46876;BME280;32866;50.160;14.768;2023-02-15T05:45:24;100906.00;;;0.48;100.00
46876;BME280;32866;50.160;14.768;2023-02-15T05:47:49;100917.31;;;0.62;100.00
46876;BME280;32866;50.160;14.768;2023-02-15T05:50:15;100916.75;;;0.69;100.00
46876;BME280;32866;50.160;14.768;2023-02-15T05:52:41;100915.06;;;0.77;100.00
46876;BME280;32866;50.160;14.768;2023-02-15T05:55:06;100918.81;;;0.84;100.00
46876;BME280;32866;50.160;14.768;2023-02-15T05:57:33;100886.22;;;0.44;100.00
46876;BME280;32866;50.160;14.768;2023-02-15T05:59:59;100919.31;;;0.65;100.00
46876;BME280;32866;50.160;14.768;2023-02-15T06:02:24;100928.13;;;0.74;100.00
46876;BME280;32866;50.160;14.768;2023-02-15T06:04:49;100924.03;;;0.68;100.00
46876;BME280;32866;50.160;14.768;2023-02-15T06:07:15;100907.63;;;0.61;100.00
46876;BME280;32866;50.160;14.768;2023-02-15T06:09:40;100930.72;;;0.83;100.00
46876;BME280;32866;50.160;14.768;2023-02-15T06:12:06;100910.97;;;0.58;100.00
46876;BME280;32866;50.160;14.768;2023-02-15T06:14:31;100949.19;;;0.93;100.00
46876;BME280;32866;50.160;14.768;2023-02-15T06:16:56;100906.44;;;0.50;100.00
46876;BME280;32866;50.160;14.768;2023-02-15T06:19:22;100905.69;;;0.62;100.00
46876;BME280;32866;50.160;14.768;2023-02-15T06:21:48;100943.44;;;0.49;100.00
46876;BME280;32866;50.160;14.768;2023-02-15T06:24:13;100946.16;;;0.62;100.00
46876;BME280;32866;50.160;14.768;2023-02-15T06:26:39;100946.66;;;0.43;100.00
46876;BME280;32866;50.160;14.768;2023-02-15T06:29:04;100939.38;;;0.43;100.00
46876;BME280;32866;50.160;14.768;2023-02-15T06:31:29;100956.28;;;0.86;100.00
46876;BME280;32866;50.160;14.768;2023-02-15T06:33:55;100956.47;;;0.81;100.00
46876;BME280;32866;50.160;14.768;2023-02-15T06:36:30;100942.59;;;0.70;100.00
46876;BME280;32866;50.160;14.768;2023-02-15T06:38:56;100962.56;;;0.90;100.00
46876;BME280;32866;50.160;14.768;2023-02-15T06:41:21;100948.94;;;0.74;100.00
46876;BME280;32866;50.160;14.768;2023-02-15T06:43:47;100966.00;;;0.66;100.00
46876;BME280;32866;50.160;14.768;2023-02-15T06:46:12;100960.09;;;0.97;100.00
46876;BME280;32866;50.160;14.768;2023-02-15T06:48:37;100921.75;;;0.46;100.00
46876;BME280;32866;50.160;14.768;2023-02-15T06:51:03;100953.69;;;0.56;100.00
46876;BME280;32866;50.160;14.768;2023-02-15T06:53:28;100932.97;;;0.48;100.00
46876;BME280;32866;50.160;14.768;2023-02-15T06:56:00;100971.13;;;0.92;100.00
46876;BME280;32866;50.160;14.768;2023-02-15T06:58:27;100954.13;;;0.91;100.00
46876;BME280;32866;50.160;14.768;2023-02-15T07:00:53;100959.22;;;1.05;100.00
46876;BME280;32866;50.160;14.768;2023-02-15T07:03:18;100972.50;;;1.10;100.00
46876;BME280;32866;50.160;14.768;2023-02-15T07:05:44;100972.50;;;1.10;100.00
46876;BME280;32866;50.160;14.768;2023-02-15T07:08:13;100975.69;;;1.13;100.00
46876;BME280;32866;50.160;14.768;2023-02-15T07:10:39;100978.03;;;1.14;100.00
46876;BME280;32866;50.160;14.768;2023-02-15T07:13:04;100980.81;;;1.05;100.00
46876;BME280;32866;50.160;14.768;2023-02-15T07:15:29;100931.72;;;0.79;100.00
46876;BME280;32866;50.160;14.768;2023-02-15T07:17:56;100934.78;;;0.89;100.00
46876;BME280;32866;50.160;14.768;2023-02-15T07:20:22;100954.06;;;1.13;100.00
46876;BME280;32866;50.160;14.768;2023-02-15T07:22:49;100965.53;;;1.09;100.00
46876;BME280;32866;50.160;14.768;2023-02-15T07:25:14;100962.97;;;1.13;100.00
46876;BME280;32866;50.160;14.768;2023-02-15T07:27:40;100956.78;;;1.13;100.00
46876;BME280;32866;50.160;14.768;2023-02-15T07:30:08;100950.91;;;1.10;100.00
46876;BME280;32866;50.160;14.768;2023-02-15T07:32:34;100957.31;;;1.06;100.00
46876;BME280;32866;50.160;14.768;2023-02-15T07:35:00;100954.91;;;0.92;100.00
46876;BME280;32866;50.160;14.768;2023-02-15T07:37:26;100961.38;;;1.12;100.00
46876;BME280;32866;50.160;14.768;2023-02-15T07:39:51;100952.72;;;1.19;100.00
46876;BME280;32866;50.160;14.768;2023-02-15T07:42:16;100927.13;;;0.91;100.00
46876;BME280;32866;50.160;14.768;2023-02-15T07:44:43;100947.09;;;1.24;100.00
46876;BME280;32866;50.160;14.768;2023-02-15T07:47:08;100913.09;;;0.98;100.00
46876;BME280;32866;50.160;14.768;2023-02-15T07:49:33;100944.38;;;1.24;100.00
46876;BME280;32866;50.160;14.768;2023-02-15T07:52:00;100932.13;;;1.14;100.00
46876;BME280;32866;50.160;14.768;2023-02-15T07:54:26;100931.34;;;1.14;100.00
46876;BME280;32866;50.160;14.768;2023-02-15T07:56:52;100900.69;;;0.85;100.00
46876;BME280;32866;50.160;14.768;2023-02-15T07:59:17;100873.25;;;0.95;100.00
46876;BME280;32866;50.160;14.768;2023-02-15T08:01:43;100886.69;;;0.58;100.00
46876;BME280;32866;50.160;14.768;2023-02-15T08:04:08;100879.97;;;0.64;100.00
46876;BME280;32866;50.160;14.768;2023-02-15T08:06:37;100920.31;;;1.06;100.00
46876;BME280;32866;50.160;14.768;2023-02-15T08:09:07;100887.44;;;0.92;100.00
46876;BME280;32866;50.160;14.768;2023-02-15T08:11:48;100890.50;;;1.03;100.00
46876;BME280;32866;50.160;14.768;2023-02-15T08:14:19;100919.53;;;1.30;100.00
46876;BME280;32866;50.160;14.768;2023-02-15T08:19:22;100919.97;;;1.08;100.00
46876;BME280;32866;50.160;14.768;2023-02-15T08:22:02;100921.09;;;1.07;100.00
46876;BME280;32866;50.160;14.768;2023-02-15T08:24:30;100926.97;;;1.09;100.00
46876;BME280;32866;50.160;14.768;2023-02-15T08:26:56;100915.91;;;1.02;100.00
46876;BME280;32866;50.160;14.768;2023-02-15T08:29:23;100915.13;;;1.01;100.00
46876;BME280;32866;50.160;14.768;2023-02-15T08:31:52;100913.53;;;1.00;100.00
46876;BME280;32866;50.160;14.768;2023-02-15T08:34:19;100886.38;;;0.72;100.00
46876;BME280;32866;50.160;14.768;2023-02-15T08:36:45;100921.63;;;0.88;100.00
46876;BME280;32866;50.160;14.768;2023-02-15T08:39:11;100919.25;;;0.86;100.00
46876;BME280;32866;50.160;14.768;2023-02-15T08:41:37;100924.66;;;0.86;100.00
46876;BME280;32866;50.160;14.768;2023-02-15T08:44:05;100922.44;;;1.01;100.00
46876;BME280;32866;50.160;14.768;2023-02-15T08:46:34;100921.97;;;0.99;100.00
46876;BME280;32866;50.160;14.768;2023-02-15T08:49:00;100921.97;;;0.99;100.00
46876;BME280;32866;50.160;14.768;2023-02-15T08:51:35;100914.19;;;0.97;100.00
46876;BME280;32866;50.160;14.768;2023-02-15T08:54:03;100918.50;;;0.98;100.00
46876;BME280;32866;50.160;14.768;2023-02-15T08:56:33;100916.38;;;1.16;100.00
46876;BME280;32866;50.160;14.768;2023-02-15T08:58:59;100896.00;;;0.94;100.00
46876;BME280;32866;50.160;14.768;2023-02-15T09:01:27;100905.03;;;1.23;100.00
46876;BME280;32866;50.160;14.768;2023-02-15T09:04:06;100911.09;;;1.44;100.00
46876;BME280;32866;50.160;14.768;2023-02-15T09:06:38;100916.50;;;1.44;100.00
46876;BME280;32866;50.160;14.768;2023-02-15T09:09:04;100911.09;;;1.44;100.00
46876;BME280;32866;50.160;14.768;2023-02-15T09:11:33;100903.88;;;1.48;100.00
46876;BME280;32866;50.160;14.768;2023-02-15T09:14:02;100903.06;;;1.60;100.00
46876;BME280;32866;50.160;14.768;2023-02-15T09:16:30;100911.06;;;1.57;100.00
46876;BME280;32866;50.160;14.768;2023-02-15T09:18:56;100901.28;;;1.64;100.00
46876;BME280;32866;50.160;14.768;2023-02-15T09:21:30;100897.53;;;1.81;100.00
46876;BME280;32866;50.160;14.768;2023-02-15T09:23:56;100898.41;;;1.85;100.00
46876;BME280;32866;50.160;14.768;2023-02-15T09:26:24;100897.44;;;1.78;100.00
46876;BME280;32866;50.160;14.768;2023-02-15T09:28:54;100898.88;;;1.75;100.00
46876;BME280;32866;50.160;14.768;2023-02-15T09:31:23;100905.22;;;1.55;100.00
46876;BME280;32866;50.160;14.768;2023-02-15T09:33:48;100895.44;;;1.50;100.00
46876;BME280;32866;50.160;14.768;2023-02-15T09:36:28;100900.28;;;1.57;100.00
46876;BME280;32866;50.160;14.768;2023-02-15T09:38:59;100880.28;;;1.21;100.00
46876;BME280;32866;50.160;14.768;2023-02-15T09:58:34;100894.75;;;1.53;100.00
46876;BME280;32866;50.160;14.768;2023-02-15T10:04:20;100872.50;;;1.19;100.00
46876;BME280;32866;50.160;14.768;2023-02-15T10:09:52;100899.72;;;1.26;100.00
46876;BME280;32866;50.160;14.768;2023-02-15T10:12:32;100896.56;;;1.37;100.00
46876;BME280;32866;50.160;14.768;2023-02-15T10:15:21;100914.47;;;1.54;100.00
46876;BME280;32866;50.160;14.768;2023-02-15T10:21:13;100898.91;;;1.51;100.00
46876;BME280;32866;50.160;14.768;2023-02-15T10:24:16;100891.94;;;1.37;100.00
46876;BME280;32866;50.160;14.768;2023-02-15T10:26:46;100894.66;;;1.37;100.00
46876;BME280;32866;50.160;14.768;2023-02-15T10:29:33;100895.09;;;1.27;100.00
46876;BME280;32866;50.160;14.768;2023-02-15T10:34:51;100895.91;;;1.40;100.00
46876;BME280;32866;50.160;14.768;2023-02-15T10:55:11;100877.44;;;1.29;100.00
46876;BME280;32866;50.160;14.768;2023-02-15T11:01:13;100881.03;;;1.46;100.00
46876;BME280;32866;50.160;14.768;2023-02-15T11:06:32;100862.53;;;1.60;100.00
46876;BME280;32866;50.160;14.768;2023-02-15T11:09:08;100864.91;;;1.62;100.00
46876;BME280;32866;50.160;14.768;2023-02-15T11:11:40;100851.19;;;1.55;100.00
46876;BME280;32866;50.160;14.768;2023-02-15T11:14:38;100858.72;;;1.49;100.00
46876;BME280;32866;50.160;14.768;2023-02-15T11:17:09;100855.97;;;1.74;100.00
46876;BME280;32866;50.160;14.768;2023-02-15T11:19:40;100861.03;;;1.75;100.00
46876;BME280;32866;50.160;14.768;2023-02-15T11:22:09;100849.34;;;1.71;100.00
46876;BME280;32866;50.160;14.768;2023-02-15T11:24:43;100847.09;;;1.73;100.00
46876;BME280;32866;50.160;14.768;2023-02-15T11:27:20;100850.69;;;1.77;100.00
46876;BME280;32866;50.160;14.768;2023-02-15T11:29:58;100847.56;;;1.63;100.00
46876;BME280;32866;50.160;14.768;2023-02-15T11:32:27;100843.09;;;1.55;100.00
46876;BME280;32866;50.160;14.768;2023-02-15T11:37:43;100838.31;;;1.64;100.00
46876;BME280;32866;50.160;14.768;2023-02-15T11:43:10;100825.97;;;1.51;100.00
46876;BME280;32866;50.160;14.768;2023-02-15T11:45:41;100800.91;;;1.38;100.00
46876;BME280;32866;50.160;14.768;2023-02-15T11:48:13;100829.28;;;1.84;100.00
46876;BME280;32866;50.160;14.768;2023-02-15T11:50:39;100828.81;;;1.82;100.00
46876;BME280;32866;50.160;14.768;2023-02-15T11:53:11;100821.28;;;1.76;100.00
46876;BME280;32866;50.160;14.768;2023-02-15T11:55:37;100785.03;;;1.24;100.00
46876;BME280;32866;50.160;14.768;2023-02-15T11:58:23;100815.44;;;1.33;100.00
46876;BME280;32866;50.160;14.768;2023-02-15T12:01:01;100816.84;;;1.55;100.00
46876;BME280;32866;50.160;14.768;2023-02-15T12:03:46;100816.22;;;1.74;100.00
46876;BME280;32866;50.160;14.768;2023-02-15T12:08:46;100816.03;;;1.95;100.00
46876;BME280;32866;50.160;14.768;2023-02-15T12:11:20;100813.97;;;2.04;100.00
46876;BME280;32866;50.160;14.768;2023-02-15T12:14:13;100819.56;;;1.83;100.00
46876;BME280;32866;50.160;14.768;2023-02-15T12:16:48;100816.63;;;1.89;100.00
46876;BME280;32866;50.160;14.768;2023-02-15T12:19:28;100807.09;;;1.79;100.00
46876;BME280;32866;50.160;14.768;2023-02-15T12:21:56;100804.22;;;1.88;100.00
46876;BME280;32866;50.160;14.768;2023-02-15T12:24:26;100801.91;;;1.86;100.00
46876;BME280;32866;50.160;14.768;2023-02-15T12:27:02;100787.03;;;2.08;100.00
46876;BME280;32866;50.160;14.768;2023-02-15T12:29:34;100786.00;;;2.29;100.00
46876;BME280;32866;50.160;14.768;2023-02-15T12:32:00;100784.44;;;2.28;100.00
46876;BME280;32866;50.160;14.768;2023-02-15T12:34:30;100784.63;;;2.35;100.00
46876;BME280;32866;50.160;14.768;2023-02-15T12:37:08;100793.09;;;2.33;100.00
46876;BME280;32866;50.160;14.768;2023-02-15T12:39:34;100772.06;;;2.27;100.00
46876;BME280;32866;50.160;14.768;2023-02-15T12:42:20;100780.25;;;2.30;100.00
46876;BME280;32866;50.160;14.768;2023-02-15T12:45:00;100771.31;;;2.14;100.00
46876;BME280;32866;50.160;14.768;2023-02-15T12:47:30;100776.06;;;2.33;100.00
46876;BME280;32866;50.160;14.768;2023-02-15T12:50:12;100771.97;;;2.23;100.00
46876;BME280;32866;50.160;14.768;2023-02-15T12:52:44;100766.84;;;2.50;100.00
46876;BME280;32866;50.160;14.768;2023-02-15T12:57:47;100751.63;;;2.45;100.00
46876;BME280;32866;50.160;14.768;2023-02-15T13:02:50;100747.44;;;2.64;100.00
46876;BME280;32866;50.160;14.768;2023-02-15T13:07:54;100762.72;;;2.40;100.00
46876;BME280;32866;50.160;14.768;2023-02-15T13:10:40;100760.97;;;2.32;100.00
46876;BME280;32866;50.160;14.768;2023-02-15T13:13:17;100749.16;;;2.08;100.00
46876;BME280;32866;50.160;14.768;2023-02-15T13:15:46;100744.72;;;2.00;100.00
46876;BME280;32866;50.160;14.768;2023-02-15T13:18:34;100743.41;;;2.10;100.00
46876;BME280;32866;50.160;14.768;2023-02-15T13:21:06;100728.41;;;2.12;100.00
46876;BME280;32866;50.160;14.768;2023-02-15T13:23:35;100712.81;;;2.21;100.00
46876;BME280;32866;50.160;14.768;2023-02-15T13:26:03;100740.13;;;2.48;100.00
46876;BME280;32866;50.160;14.768;2023-02-15T13:28:39;100740.63;;;2.54;100.00
46876;BME280;32866;50.160;14.768;2023-02-15T13:31:12;100740.97;;;2.52;100.00
46876;BME280;32866;50.160;14.768;2023-02-15T13:33:42;100746.22;;;2.45;100.00
46876;BME280;32866;50.160;14.768;2023-02-15T13:50:43;100743.91;;;2.79;100.00
46876;BME280;32866;50.160;14.768;2023-02-15T13:56:59;100730.25;;;2.91;100.00
46876;BME280;32866;50.160;14.768;2023-02-15T13:59:41;100727.06;;;2.86;100.00
46876;BME280;32866;50.160;14.768;2023-02-15T14:08:11;100718.19;;;3.05;100.00
46876;BME280;32866;50.160;14.768;2023-02-15T14:16:21;100708.28;;;3.12;100.00
46876;BME280;32866;50.160;14.768;2023-02-15T14:24:30;100711.09;;;3.36;100.00
46876;BME280;32866;50.160;14.768;2023-02-15T14:29:57;100699.38;;;3.51;100.00
46876;BME280;32866;50.160;14.768;2023-02-15T14:32:36;100705.09;;;3.07;100.00
46876;BME280;32866;50.160;14.768;2023-02-15T14:35:13;100710.19;;;2.92;100.00
46876;BME280;32866;50.160;14.768;2023-02-15T14:37:52;100715.81;;;2.68;100.00
46876;BME280;32866;50.160;14.768;2023-02-15T14:43:48;100719.69;;;2.67;100.00
46876;BME280;32866;50.160;14.768;2023-02-15T14:49:20;100703.78;;;3.01;100.00
46876;BME280;32866;50.160;14.768;2023-02-15T14:56:43;100692.97;;;2.49;100.00
46876;BME280;32866;50.160;14.768;2023-02-15T14:59:20;100692.97;;;2.49;100.00
46876;BME280;32866;50.160;14.768;2023-02-15T15:01:58;100702.84;;;2.41;100.00
46876;BME280;32866;50.160;14.768;2023-02-15T15:09:34;100693.34;;;2.32;100.00
46876;BME280;32866;50.160;14.768;2023-02-15T15:12:13;100690.97;;;2.30;100.00
46876;BME280;32866;50.160;14.768;2023-02-15T15:14:43;100690.72;;;2.03;100.00
46876;BME280;32866;50.160;14.768;2023-02-15T15:17:12;100662.72;;;1.52;100.00
46876;BME280;32866;50.160;14.768;2023-02-15T15:22:31;100697.06;;;1.79;100.00
46876;BME280;32866;50.160;14.768;2023-02-15T15:27:58;100644.94;;;1.22;100.00
46876;BME280;32866;50.160;14.768;2023-02-15T15:35:52;100687.22;;;1.59;100.00